Archival Weather

Chicago O'Hare International

Chicago, Illinois (KORD)

Report from: Wednesday, January 25, 2023 2:59 AM CST
Current time: Monday, February 6, 2023 12:30 AM CST

Current weather
Weather history
Weather forecast

Present weatherLight snow
Temperature0.0°C (32.0°F)
Dew point-2.2°C (28.0°F)
Winds Calm
Visibility1 mi. (1.6 km)
Clouds Ceiling: Overcast 800 ft. (244 m)
Altimeter29.93 in.Hg (1014 mB)
PrecipitiationTrace
Relative humidity85 %
Density altitude-1,763 ft. (-537 m)
Remarks Automated weather observing station with precipitation discriminator
Flight conditions Instrument Meteorological Conditions
Raw dataKORD 250859Z 00000KT 1SM R10L/P6000FT -SN OVC008 00/M02 A2993 RMK AO2 P0000 T00001022
An error has occurred. This application may no longer respond until reloaded. Reload 🗙